createdAt,value
2023-01-09T00:01:23.454Z,78.15
2023-01-09T00:03:51.788Z,77.92
2023-01-09T00:06:19.712Z,78.07
2023-01-09T00:08:47.681Z,77.98
2023-01-09T00:11:15.766Z,77.72
2023-01-09T00:13:43.721Z,77.61
2023-01-09T00:16:11.568Z,77.74
2023-01-09T00:18:39.629Z,77.86
2023-01-09T00:21:08.659Z,77.81
2023-01-09T00:23:37.138Z,77.88
2023-01-09T00:26:05.217Z,78.05
2023-01-09T00:28:34.099Z,78.08
2023-01-09T00:31:03.451Z,78.29
2023-01-09T00:33:36.677Z,78.36
2023-01-09T00:36:05.276Z,78.26
2023-01-09T00:38:33.255Z,78.18
2023-01-09T00:41:01.527Z,78.40
2023-01-09T00:43:32.778Z,78.45
2023-01-09T00:46:02.219Z,78.46
2023-01-09T00:48:30.245Z,78.60
2023-01-09T00:50:59.136Z,78.54
2023-01-09T00:53:29.355Z,78.49
2023-01-09T00:56:03.585Z,78.43
2023-01-09T00:58:32.774Z,78.69
2023-01-09T01:01:01.325Z,78.67
2023-01-09T01:03:29.741Z,78.76
2023-01-09T01:06:16.091Z,78.76
2023-01-09T01:08:45.011Z,78.63
2023-01-09T01:11:13.213Z,78.58
2023-01-09T01:13:41.999Z,78.10
2023-01-09T01:16:12.442Z,78.18
2023-01-09T01:18:40.895Z,78.31
2023-01-09T01:21:09.789Z,78.47
2023-01-09T01:23:38.474Z,78.39
2023-01-09T01:26:07.366Z,78.18
2023-01-09T01:28:35.333Z,78.41
2023-01-09T01:31:03.878Z,78.73
2023-01-09T01:33:32.397Z,78.93
2023-01-09T01:36:01.289Z,78.81
2023-01-09T01:38:30.196Z,78.66
2023-01-09T01:40:58.259Z,78.43
2023-01-09T01:43:26.444Z,78.52
2023-01-09T01:45:54.436Z,78.43
2023-01-09T01:48:29.229Z,78.42
2023-01-09T01:51:02.642Z,78.44
2023-01-09T01:53:56.602Z,78.51
2023-01-09T01:56:35.629Z,78.36
2023-01-09T01:59:03.499Z,78.20
2023-01-09T02:01:33.280Z,78.14
2023-01-09T02:04:02.116Z,78.23
2023-01-09T02:06:30.796Z,78.09
2023-01-09T02:08:58.677Z,77.89
2023-01-09T02:11:26.738Z,77.84
2023-01-09T02:13:54.804Z,77.85
2023-01-09T02:16:32.395Z,77.66
2023-01-09T02:19:18.900Z,77.45
2023-01-09T02:22:16.152Z,77.42
2023-01-09T02:25:16.352Z,77.32
2023-01-09T02:27:50.084Z,77.18
2023-01-09T02:30:21.027Z,77.09
2023-01-09T02:33:15.203Z,76.74
2023-01-09T02:36:02.016Z,76.64
2023-01-09T02:38:41.463Z,76.50
2023-01-09T02:41:30.935Z,76.17
2023-01-09T02:44:11.069Z,75.58
2023-01-09T02:46:39.059Z,75.40
2023-01-09T02:49:07.505Z,74.95
2023-01-09T02:51:35.403Z,74.57
2023-01-09T02:54:23.549Z,74.39
2023-01-09T02:56:57.537Z,74.32
2023-01-09T03:00:04.129Z,74.19
2023-01-09T03:02:34.622Z,74.31
2023-01-09T03:05:09.096Z,74.34
2023-01-09T03:07:41.963Z,74.33
2023-01-09T03:10:16.795Z,74.38
2023-01-09T03:12:45.685Z,74.82
2023-01-09T03:15:15.199Z,75.07
2023-01-09T03:17:45.836Z,75.01
2023-01-09T03:20:16.666Z,75.12
2023-01-09T03:22:57.435Z,74.97
2023-01-09T03:25:27.153Z,75.13
2023-01-09T03:27:59.521Z,75.15
2023-01-09T03:30:28.762Z,75.62
2023-01-09T03:32:57.207Z,75.80
2023-01-09T03:35:25.661Z,75.85
2023-01-09T03:37:53.675Z,76.05
2023-01-09T03:40:21.934Z,76.25
2023-01-09T03:42:50.095Z,76.48
2023-01-09T03:45:17.974Z,76.96
2023-01-09T03:47:45.943Z,76.67
2023-01-09T03:50:13.747Z,76.30
2023-01-09T03:52:41.874Z,76.70
2023-01-09T03:55:09.958Z,76.66
2023-01-09T03:57:37.912Z,76.78
2023-01-09T04:00:06.156Z,76.91
2023-01-09T04:02:39.997Z,76.81
2023-01-09T04:05:08.377Z,76.65
2023-01-09T04:07:36.355Z,76.27
2023-01-09T04:10:04.414Z,76.17
2023-01-09T04:12:32.323Z,76.72
2023-01-09T04:15:00.098Z,76.84
2023-01-09T04:17:27.871Z,77.25
2023-01-09T04:19:55.786Z,77.52
2023-01-09T04:22:23.731Z,78.22
2023-01-09T04:24:51.725Z,78.40
2023-01-09T04:27:19.594Z,78.52
2023-01-09T04:29:47.452Z,78.87
2023-01-09T04:32:15.324Z,78.75
2023-01-09T04:34:43.407Z,78.81
2023-01-09T04:37:11.574Z,78.56
2023-01-09T04:39:40.974Z,78.86
2023-01-09T04:42:09.246Z,78.58
2023-01-09T04:44:37.222Z,78.36
2023-01-09T04:47:05.611Z,77.57
2023-01-09T04:49:33.499Z,78.28
2023-01-09T04:52:01.437Z,78.23
2023-01-09T04:54:29.301Z,78.28
2023-01-09T04:56:57.138Z,78.46
2023-01-09T04:59:24.967Z,78.35
2023-01-09T05:01:55.037Z,77.61
2023-01-09T05:04:22.891Z,77.19
2023-01-09T05:06:50.700Z,76.65
2023-01-09T05:09:18.760Z,77.11
2023-01-09T05:11:46.721Z,76.39
2023-01-09T05:14:14.776Z,78.55
2023-01-09T05:16:42.760Z,79.38
2023-01-09T05:19:11.157Z,80.39
2023-01-09T05:21:39.013Z,80.51
2023-01-09T05:24:07.188Z,80.61
2023-01-09T05:26:35.041Z,79.97
2023-01-09T05:29:02.932Z,80.34
2023-01-09T05:31:30.930Z,80.44
2023-01-09T05:34:00.916Z,80.09
2023-01-09T05:36:29.510Z,79.12
2023-01-09T05:38:58.384Z,77.87
2023-01-09T05:41:28.856Z,77.57
2023-01-09T05:43:56.890Z,77.85
2023-01-09T05:46:24.705Z,77.77
2023-01-09T05:48:52.720Z,77.04
2023-01-09T05:51:20.654Z,76.05
2023-01-09T05:53:48.860Z,76.82
2023-01-09T05:56:16.732Z,75.92
2023-01-09T05:58:44.527Z,77.08
2023-01-09T06:01:12.385Z,80.45
2023-01-09T06:03:40.432Z,81.70
2023-01-09T06:06:08.398Z,82.27
2023-01-09T06:08:36.264Z,82.04
2023-01-09T06:11:04.243Z,81.60
2023-01-09T06:13:32.311Z,82.16
2023-01-09T06:16:00.322Z,81.74
2023-01-09T06:18:28.257Z,81.14
2023-01-09T06:20:56.211Z,81.21
2023-01-09T06:23:24.079Z,81.59
2023-01-09T06:25:52.055Z,82.22
2023-01-09T06:28:19.900Z,82.38
2023-01-09T06:30:50.679Z,82.59
2023-01-09T06:33:18.802Z,81.94
2023-01-09T06:35:46.815Z,81.38
2023-01-09T06:38:14.772Z,80.94
2023-01-09T06:40:42.747Z,80.87
2023-01-09T06:43:11.015Z,80.13
2023-01-09T06:45:38.885Z,79.72
2023-01-09T06:48:06.910Z,79.34
2023-01-09T06:50:35.227Z,79.02
2023-01-09T06:53:03.514Z,78.64
2023-01-09T06:55:31.387Z,78.74
2023-01-09T06:57:59.342Z,79.01
2023-01-09T07:00:27.516Z,77.97
2023-01-09T07:02:55.490Z,77.55
2023-01-09T07:05:24.213Z,75.68
2023-01-09T07:07:52.354Z,75.44
2023-01-09T07:10:20.313Z,75.22
2023-01-09T07:12:48.287Z,74.43
2023-01-09T07:15:16.659Z,73.76
2023-01-09T07:17:44.529Z,72.23
2023-01-09T07:20:12.497Z,70.34
2023-01-09T07:22:40.370Z,68.57
2023-01-09T07:25:08.547Z,68.17
2023-01-09T07:27:36.927Z,66.06
2023-01-09T07:30:06.014Z,65.73
2023-01-09T07:32:34.196Z,65.86
2023-01-09T07:35:02.055Z,65.55
2023-01-09T07:37:30.126Z,65.68
2023-01-09T07:39:57.992Z,64.66
2023-01-09T07:42:26.174Z,63.75
2023-01-09T07:44:54.157Z,63.14
2023-01-09T07:47:22.113Z,62.83
2023-01-09T07:49:50.198Z,62.51
2023-01-09T07:52:18.151Z,61.61
2023-01-09T07:54:46.114Z,60.51
2023-01-09T07:57:14.101Z,59.89
2023-01-09T07:59:42.056Z,59.94
2023-01-09T08:02:10.180Z,59.61
2023-01-09T08:04:38.307Z,59.04
2023-01-09T08:07:06.241Z,58.55
2023-01-09T08:09:34.239Z,58.63
2023-01-09T08:12:02.211Z,57.89
2023-01-09T08:14:30.730Z,58.32
2023-01-09T08:16:58.746Z,58.36
2023-01-09T08:19:26.615Z,57.67
2023-01-09T08:21:54.605Z,56.92
2023-01-09T08:24:22.579Z,55.87
2023-01-09T08:26:50.545Z,54.58
2023-01-09T08:29:18.514Z,53.26
2023-01-09T08:31:46.615Z,51.77
2023-01-09T08:34:14.653Z,50.54
2023-01-09T08:36:42.521Z,49.60
2023-01-09T08:39:11.005Z,49.41
2023-01-09T08:41:57.928Z,49.54
2023-01-09T08:44:44.832Z,49.72
2023-01-09T08:47:15.571Z,49.86
2023-01-09T08:49:43.447Z,50.04
2023-01-09T08:52:12.426Z,50.20
2023-01-09T08:54:40.343Z,50.10
2023-01-09T08:57:08.461Z,49.82
2023-01-09T08:59:37.060Z,49.97
2023-01-09T09:02:05.025Z,49.59
2023-01-09T09:04:33.010Z,49.10
2023-01-09T09:07:00.960Z,48.67
2023-01-09T09:09:28.844Z,48.03
2023-01-09T09:11:56.900Z,47.18
2023-01-09T09:14:43.362Z,46.13
2023-01-09T09:17:11.261Z,45.86
2023-01-09T09:19:39.731Z,45.87
2023-01-09T09:22:07.645Z,46.25
2023-01-09T09:24:35.641Z,46.99
2023-01-09T09:27:04.818Z,47.86
2023-01-09T09:29:32.757Z,49.07
2023-01-09T09:32:01.042Z,50.00
2023-01-09T09:34:29.035Z,50.00
2023-01-09T09:36:56.919Z,49.75
2023-01-09T09:39:24.935Z,50.79
2023-01-09T09:42:35.842Z,50.49
2023-01-09T09:45:03.671Z,50.10
2023-01-09T09:47:41.721Z,49.52
2023-01-09T09:50:28.449Z,48.07
2023-01-09T09:53:01.284Z,46.27
2023-01-09T09:55:38.607Z,43.18
2023-01-09T09:58:13.920Z,42.62
2023-01-09T10:00:42.261Z,41.14
2023-01-09T10:03:33.044Z,40.23
2023-01-09T10:06:04.855Z,40.05
2023-01-09T10:08:45.240Z,39.84
2023-01-09T10:11:19.221Z,39.67
2023-01-09T10:14:08.173Z,39.44
2023-01-09T10:16:40.573Z,39.52
2023-01-09T10:19:19.577Z,40.24
2023-01-09T10:22:05.985Z,40.97
2023-01-09T10:24:45.941Z,41.70
2023-01-09T10:27:18.054Z,42.21
2023-01-09T10:29:54.783Z,41.65
2023-01-09T10:32:48.870Z,41.75
2023-01-09T10:35:19.898Z,43.49
2023-01-09T10:37:53.196Z,44.33
2023-01-09T10:40:21.282Z,42.78
2023-01-09T10:42:52.827Z,43.32
2023-01-09T10:45:20.901Z,43.45
2023-01-09T10:47:49.174Z,42.81
2023-01-09T10:50:22.014Z,41.03
2023-01-09T10:52:51.475Z,39.46
2023-01-09T10:55:30.602Z,43.08
2023-01-09T10:58:02.759Z,42.40
2023-01-09T11:00:30.725Z,41.23
2023-01-09T11:02:58.699Z,40.80
2023-01-09T11:05:31.171Z,41.06
2023-01-09T11:08:03.423Z,41.65
2023-01-09T11:10:51.621Z,40.99
2023-01-09T11:13:21.190Z,41.39
2023-01-09T11:16:22.272Z,41.11
2023-01-09T11:18:50.320Z,39.96
2023-01-09T11:21:18.122Z,40.70
2023-01-09T11:23:46.045Z,40.68
2023-01-09T11:26:27.634Z,41.24
2023-01-09T11:29:27.903Z,38.63
2023-01-09T11:32:00.358Z,37.43
2023-01-09T11:34:31.181Z,36.74
2023-01-09T11:37:04.528Z,36.80
2023-01-09T11:39:33.861Z,38.06
2023-01-09T11:42:04.299Z,39.29
2023-01-09T11:44:33.083Z,39.18
2023-01-09T11:47:01.024Z,39.67
2023-01-09T11:49:30.349Z,39.43
2023-01-09T11:52:19.548Z,40.13
2023-01-09T11:54:54.624Z,39.89
2023-01-09T11:57:24.490Z,39.73
2023-01-09T11:59:54.522Z,40.24
2023-01-09T12:02:28.628Z,40.76
2023-01-09T12:05:00.740Z,41.36
2023-01-09T12:07:31.398Z,41.25
2023-01-09T12:10:05.398Z,41.02
2023-01-09T12:13:11.888Z,41.09
2023-01-09T12:15:57.901Z,40.56
2023-01-09T12:18:40.869Z,40.92
2023-01-09T12:21:08.837Z,40.52
2023-01-09T12:23:55.468Z,40.37
2023-01-09T12:26:33.885Z,40.14
2023-01-09T12:29:10.867Z,40.34
2023-01-09T12:31:49.670Z,40.25
2023-01-09T12:34:29.720Z,40.08
2023-01-09T12:37:18.196Z,40.80
2023-01-09T12:40:06.328Z,41.14
2023-01-09T12:42:49.467Z,41.56
2023-01-09T12:45:20.092Z,41.97
2023-01-09T12:47:49.089Z,42.49
2023-01-09T12:50:23.276Z,42.79
2023-01-09T12:52:59.992Z,43.05
2023-01-09T12:55:32.762Z,43.45
2023-01-09T12:58:02.277Z,43.74
2023-01-09T13:00:43.657Z,43.99
2023-01-09T13:03:27.690Z,44.00
2023-01-09T13:05:57.723Z,43.98
2023-01-09T13:08:25.678Z,44.12
2023-01-09T13:10:56.287Z,43.66
2023-01-09T13:13:39.057Z,43.53
2023-01-09T13:16:12.545Z,43.74
2023-01-09T13:18:46.637Z,43.83
2023-01-09T13:21:15.126Z,43.70
2023-01-09T13:23:49.128Z,43.78
2023-01-09T13:26:22.550Z,44.15
2023-01-09T13:29:04.360Z,44.52
2023-01-09T13:31:38.406Z,45.11
2023-01-09T13:34:21.486Z,45.08
2023-01-09T13:36:54.953Z,45.80
2023-01-09T13:39:27.646Z,46.07
2023-01-09T13:42:18.724Z,46.41
2023-01-09T13:44:48.258Z,46.75
2023-01-09T13:47:21.461Z,47.14
2023-01-09T13:49:49.943Z,47.54
2023-01-09T13:52:30.096Z,48.14
2023-01-09T13:55:01.132Z,48.08
2023-01-09T13:57:36.060Z,47.30
2023-01-09T14:00:13.175Z,48.33
2023-01-09T14:02:41.313Z,48.16
2023-01-09T14:05:09.259Z,48.47
2023-01-09T14:07:41.464Z,47.35
2023-01-09T14:10:26.638Z,47.72
2023-01-09T14:12:56.330Z,48.04
2023-01-09T14:15:26.631Z,48.13
2023-01-09T14:18:02.413Z,48.50
2023-01-09T14:20:42.053Z,48.96
2023-01-09T14:23:38.974Z,48.39
2023-01-09T14:26:17.432Z,48.46
2023-01-09T14:28:45.388Z,48.53
2023-01-09T14:31:33.564Z,49.03
2023-01-09T14:34:31.191Z,49.88
2023-01-09T14:37:01.939Z,49.67
2023-01-09T14:39:32.156Z,50.36
2023-01-09T14:42:08.011Z,49.80
2023-01-09T14:44:53.802Z,50.41
2023-01-09T14:47:30.894Z,51.16
2023-01-09T14:50:06.173Z,50.31
2023-01-09T14:52:37.653Z,50.57
2023-01-09T14:55:21.310Z,51.04
2023-01-09T14:57:52.343Z,51.68
2023-01-09T15:00:21.154Z,52.17
2023-01-09T15:02:50.740Z,51.54
2023-01-09T15:05:22.201Z,51.73
2023-01-09T15:07:52.724Z,51.35
2023-01-09T15:10:22.456Z,50.92
2023-01-09T15:12:51.660Z,50.69
2023-01-09T15:15:21.142Z,50.76
2023-01-09T15:17:56.997Z,51.08
2023-01-09T15:20:27.519Z,51.17
2023-01-09T15:22:56.037Z,51.21
2023-01-09T15:25:37.763Z,52.57
2023-01-09T15:28:32.850Z,52.12
2023-01-09T15:48:22.413Z,53.12
2023-01-09T15:50:53.227Z,53.45
2023-01-09T15:53:22.744Z,53.98
2023-01-09T15:56:04.981Z,53.67
2023-01-09T15:58:34.851Z,53.59
2023-01-09T16:01:02.657Z,54.24
2023-01-09T16:03:31.210Z,53.31
2023-01-09T16:06:05.809Z,53.91
2023-01-09T16:08:34.007Z,54.41
2023-01-09T16:11:04.072Z,53.87
2023-01-09T16:13:33.591Z,52.69
2023-01-09T16:16:02.297Z,54.06
2023-01-09T16:18:35.311Z,55.19
2023-01-09T16:21:05.731Z,53.75
2023-01-09T16:23:35.641Z,53.69
2023-01-09T16:26:11.804Z,53.16
2023-01-09T16:28:43.174Z,53.13
2023-01-09T16:31:14.194Z,53.79
2023-01-09T16:33:50.180Z,53.47
2023-01-09T16:36:19.051Z,53.59
2023-01-09T16:38:47.451Z,55.01
2023-01-09T16:41:35.158Z,54.37
2023-01-09T16:44:06.705Z,54.70
2023-01-09T16:46:36.012Z,54.58
2023-01-09T16:49:04.712Z,55.78
2023-01-09T16:51:32.665Z,56.09
2023-01-09T16:54:00.637Z,55.88
2023-01-09T16:56:30.073Z,56.49
2023-01-09T16:58:59.120Z,56.15
2023-01-09T17:01:27.027Z,56.64
2023-01-09T17:03:55.072Z,56.94
2023-01-09T17:06:31.420Z,57.68
2023-01-09T17:09:01.467Z,57.43
2023-01-09T17:11:32.020Z,57.34
2023-01-09T17:14:01.186Z,57.18
2023-01-09T17:16:29.436Z,57.18
2023-01-09T17:18:57.428Z,56.71
2023-01-09T17:21:29.145Z,56.83
2023-01-09T17:24:18.881Z,57.00
2023-01-09T17:27:08.140Z,57.24
2023-01-09T17:29:36.387Z,57.27
2023-01-09T17:32:04.434Z,57.51
2023-01-09T17:34:33.887Z,57.62
2023-01-09T17:37:04.286Z,58.14
2023-01-09T17:39:32.603Z,57.73
2023-01-09T17:42:02.113Z,58.14
2023-01-09T17:44:30.057Z,58.34
2023-01-09T17:46:57.978Z,58.88
2023-01-09T17:49:27.303Z,58.54
2023-01-09T17:51:55.203Z,59.14
2023-01-09T17:54:23.279Z,59.61
2023-01-09T17:56:51.828Z,59.40
2023-01-09T17:59:19.726Z,60.12
2023-01-09T18:01:47.808Z,60.60
2023-01-09T18:04:15.991Z,60.80
2023-01-09T18:06:44.148Z,61.17
2023-01-09T18:09:17.374Z,60.99
2023-01-09T18:11:45.230Z,60.49
2023-01-09T18:14:13.913Z,60.51
2023-01-09T18:16:42.476Z,58.97
2023-01-09T18:19:10.562Z,59.29
2023-01-09T18:21:38.531Z,59.42
2023-01-09T18:24:06.786Z,59.95
2023-01-09T18:26:34.604Z,60.90
2023-01-09T18:29:02.835Z,61.30
2023-01-09T18:31:31.257Z,61.30
2023-01-09T18:34:02.352Z,61.17
2023-01-09T18:36:30.757Z,61.94
2023-01-09T18:38:59.944Z,62.42
2023-01-09T18:41:28.312Z,62.31
2023-01-09T18:43:57.834Z,62.31
2023-01-09T18:46:30.827Z,62.48
2023-01-09T18:49:00.245Z,62.95
2023-01-09T18:51:28.694Z,62.93
2023-01-09T18:53:57.383Z,62.75
2023-01-09T18:56:25.448Z,62.10
2023-01-09T18:58:57.524Z,62.54
2023-01-09T19:01:29.315Z,60.53
2023-01-09T19:03:58.022Z,58.84
2023-01-09T19:06:26.949Z,58.93
2023-01-09T19:08:55.256Z,58.08
2023-01-09T19:11:23.203Z,59.20
2023-01-09T19:13:51.171Z,61.18
2023-01-09T19:16:19.471Z,61.00
2023-01-09T19:18:47.514Z,61.28
2023-01-09T19:21:17.014Z,62.03
2023-01-09T19:23:45.637Z,62.40
2023-01-09T19:26:21.060Z,61.52
2023-01-09T19:28:50.386Z,60.70
2023-01-09T19:31:18.565Z,59.70
2023-01-09T19:33:46.705Z,58.70
2023-01-09T19:36:14.875Z,59.85
2023-01-09T19:38:43.765Z,59.44
2023-01-09T19:41:14.466Z,58.22
2023-01-09T19:43:42.780Z,58.10
2023-01-09T19:46:12.970Z,57.44
2023-01-09T19:48:42.805Z,57.59
2023-01-09T19:51:11.494Z,58.06
2023-01-09T19:53:39.875Z,58.06
2023-01-09T19:56:12.662Z,57.99
2023-01-09T19:58:41.242Z,57.38
2023-01-09T20:01:10.711Z,57.42
2023-01-09T20:03:42.299Z,57.36
2023-01-09T20:06:17.521Z,57.26
2023-01-09T20:08:47.643Z,56.71
2023-01-09T20:11:16.344Z,56.55
2023-01-09T20:13:44.541Z,56.59
2023-01-09T20:16:17.112Z,56.45
2023-01-09T20:18:45.133Z,56.39
2023-01-09T20:23:51.119Z,56.40
2023-01-09T20:26:19.495Z,56.52
2023-01-09T20:28:48.027Z,56.43
2023-01-09T20:31:17.566Z,56.13
2023-01-09T20:33:46.816Z,56.21
2023-01-09T20:36:15.391Z,56.18
2023-01-09T20:38:43.459Z,56.31
2023-01-09T20:41:22.799Z,56.13
2023-01-09T20:43:53.988Z,55.63
2023-01-09T20:46:25.210Z,55.72
2023-01-09T20:48:56.822Z,55.69
2023-01-09T20:51:25.532Z,55.51
2023-01-09T20:53:56.267Z,55.49
2023-01-09T20:56:25.490Z,55.44
2023-01-09T20:58:53.662Z,55.59
2023-01-09T21:01:22.937Z,55.85
2023-01-09T21:03:51.790Z,55.84
2023-01-09T21:06:20.481Z,55.94
2023-01-09T21:08:50.308Z,56.08
2023-01-09T21:11:18.821Z,55.86
2023-01-09T21:13:46.991Z,55.69
2023-01-09T21:16:16.883Z,55.74
2023-01-09T21:18:44.972Z,55.68
2023-01-09T21:21:16.935Z,55.37
2023-01-09T21:23:45.518Z,55.28
2023-01-09T21:26:14.819Z,55.35
2023-01-09T21:28:49.907Z,55.30
2023-01-09T21:31:19.661Z,55.14
2023-01-09T21:33:48.288Z,55.26
2023-01-09T21:36:17.355Z,55.19
2023-01-09T21:38:46.958Z,55.23
2023-01-09T21:41:49.229Z,55.17
2023-01-09T21:44:35.739Z,55.26
2023-01-09T21:47:04.006Z,55.35
2023-01-09T21:49:35.196Z,55.32
2023-01-09T21:52:04.765Z,55.41
2023-01-09T21:54:33.350Z,55.53
2023-01-09T21:57:01.827Z,55.68
2023-01-09T21:59:29.950Z,55.68
2023-01-09T22:01:58.487Z,55.59
2023-01-09T22:04:30.827Z,55.62
2023-01-09T22:06:58.934Z,55.65
2023-01-09T22:09:26.766Z,55.78
2023-01-09T22:11:54.876Z,55.85
2023-01-09T22:14:22.940Z,56.03
2023-01-09T22:16:50.815Z,56.15
2023-01-09T22:19:18.879Z,56.05
2023-01-09T22:21:47.364Z,56.03
2023-01-09T22:24:16.658Z,56.19
2023-01-09T22:26:45.565Z,56.56
2023-01-09T22:29:14.031Z,56.40
2023-01-09T22:31:43.145Z,56.61
2023-01-09T22:34:16.011Z,56.49
2023-01-09T22:36:44.256Z,56.72
2023-01-09T22:39:13.692Z,56.89
2023-01-09T22:41:41.879Z,57.15
2023-01-09T22:44:11.374Z,57.50
2023-01-09T22:46:39.348Z,57.71
2023-01-09T22:49:07.311Z,57.39
2023-01-09T22:51:35.305Z,57.58
2023-01-09T22:54:03.247Z,57.50
2023-01-09T22:56:32.444Z,57.90
2023-01-09T22:59:01.214Z,58.11
2023-01-09T23:01:29.209Z,57.83
2023-01-09T23:03:57.178Z,57.84
2023-01-09T23:06:25.549Z,58.04
2023-01-09T23:08:53.835Z,58.53
2023-01-09T23:11:45.254Z,58.53
2023-01-09T23:14:13.639Z,58.67
2023-01-09T23:16:41.830Z,58.69
2023-01-09T23:19:12.969Z,58.78
2023-01-09T23:21:41.327Z,58.79
2023-01-09T23:24:09.674Z,58.86
2023-01-09T23:26:40.751Z,59.79
2023-01-09T23:29:08.835Z,60.26
2023-01-09T23:31:36.953Z,59.89
2023-01-09T23:34:08.196Z,59.51
2023-01-09T23:36:36.302Z,59.81
2023-01-09T23:39:09.097Z,60.17
2023-01-09T23:41:56.137Z,60.15
2023-01-09T23:44:23.977Z,59.59
2023-01-09T23:46:51.949Z,60.08
2023-01-09T23:49:20.252Z,60.24
2023-01-09T23:51:48.193Z,59.87
2023-01-09T23:54:17.293Z,59.46
2023-01-09T23:56:45.372Z,59.65
2023-01-09T23:59:14.759Z,59.81
